Hlavní strana
METAR-TAF:

METAR-TAF

Letiště :

Shelbyville, Tennessee, Spojené státy americké

zeměpisná šířka: 35-33-34N, zeměpisná délka: 086-26-33W, výška: 244 m

Aktuální stav počasí

Zpráva byla vytvořena před 13 minutami, v 11:55 UTC
Bezvětří
Teplota 11°C
Vlhkost vzduchu 94%
Tlak 1020 hPa
Viditelnost: 16.1 km
Jasno

METAR: KSYI 231155Z AUTO 00000KT 10SM CLR 11/10 A3012 RMK A01

Čas: 07:08 (12:08 UTC)


TAF: chybějící

Stav a předpovědi počasí z více než 4 000 letišť (zprávy METAR a TAF).

Červené a žluté tečky na mapě představují dostupné meteorologické stanice.

Když kurzor umístíte na tečku, zobrazí se název stanice.

Pak kliknutím zobrazíte stav a předpověď počasí.

Chcete-li změnit mapu, kliknutím na zelené tlačítko se znaménkem +mapu přiblížíte, kliknutím na zelené tlačítko se znaménkem – mapu oddálíte a kliknutím na zelené šipky přejdete na sousední mapy.


METAR-TAF: